MPR weather

Mc Pherson Airport
Mc Pherson, Kansas, United States

Public forecast

Using degrees Fahrenheit for public forecast. Weather courtesy of forecast.io.

Closest aviation weather report (METAR) to Mc Pherson Airport

Closest report is Hutchinson Municipal Airport, 19.0 nm (35.2 km) SSW. Retrieved 2019/10/14 01:52 UTC (29 minutes ago):

KHUT 140152Z 00000KT 10SM CLR 07/05 A2997 RMK AO2 SLP147 T00720050

Closest aviation forecast (TAF) to Mc Pherson Airport

Closest forecast is Hutchinson Municipal Airport, 19.0 nm (35.2 km) SSW. Retrieved 2019-10-14 00:42 UTC (2 hours ago):

TAF KHUT 132340Z 1400/1424 00000KT P6SM SKC FM141400 15007KT P6SM SKC FM141700 16017KT P6SM SKC FM142000 17017G26KT P6SM SKC